sensor_id;sensor_type;location;lat;lon;timestamp;P1;durP1;ratioP1;P2;durP2;ratioP2
78752;SDS011;68072;51.688;7.842;2023-06-22T00:03:36;5.63;;;3.63;;
78752;SDS011;68072;51.688;7.842;2023-06-22T00:08:27;4.33;;;3.50;;
78752;SDS011;68072;51.688;7.842;2023-06-22T00:13:17;6.07;;;3.70;;
78752;SDS011;68072;51.688;7.842;2023-06-22T00:15:43;4.10;;;2.92;;
78752;SDS011;68072;51.688;7.842;2023-06-22T00:20:34;5.68;;;3.50;;
78752;SDS011;68072;51.688;7.842;2023-06-22T00:23:02;5.97;;;3.80;;
78752;SDS011;68072;51.688;7.842;2023-06-22T00:25:34;5.22;;;3.63;;
78752;SDS011;68072;51.688;7.842;2023-06-22T00:28:00;4.28;;;3.20;;
78752;SDS011;68072;51.688;7.842;2023-06-22T00:32:50;4.10;;;3.77;;
78752;SDS011;68072;51.688;7.842;2023-06-22T00:37:41;7.05;;;4.35;;
78752;SDS011;68072;51.688;7.842;2023-06-22T00:42:33;8.32;;;4.55;;
78752;SDS011;68072;51.688;7.842;2023-06-22T00:47:24;5.33;;;4.50;;
78752;SDS011;68072;51.688;7.842;2023-06-22T00:49:49;8.23;;;4.38;;
78752;SDS011;68072;51.688;7.842;2023-06-22T00:52:24;5.22;;;4.50;;
78752;SDS011;68072;51.688;7.842;2023-06-22T00:54:54;6.68;;;4.57;;
78752;SDS011;68072;51.688;7.842;2023-06-22T00:57:20;5.63;;;4.40;;
78752;SDS011;68072;51.688;7.842;2023-06-22T00:59:47;8.55;;;4.20;;
78752;SDS011;68072;51.688;7.842;2023-06-22T01:02:13;8.20;;;5.32;;
78752;SDS011;68072;51.688;7.842;2023-06-22T01:10:33;6.55;;;4.85;;
78752;SDS011;68072;51.688;7.842;2023-06-22T01:12:55;6.95;;;5.32;;
78752;SDS011;68072;51.688;7.842;2023-06-22T01:16:00;6.53;;;5.45;;
78752;SDS011;68072;51.688;7.842;2023-06-22T01:18:22;7.57;;;6.25;;
78752;SDS011;68072;51.688;7.842;2023-06-22T01:20:54;8.43;;;6.20;;
78752;SDS011;68072;51.688;7.842;2023-06-22T01:25:59;8.05;;;6.15;;
78752;SDS011;68072;51.688;7.842;2023-06-22T01:33:31;8.70;;;6.05;;
78752;SDS011;68072;51.688;7.842;2023-06-22T01:35:58;8.77;;;5.97;;
78752;SDS011;68072;51.688;7.842;2023-06-22T01:38:25;7.85;;;5.68;;
78752;SDS011;68072;51.688;7.842;2023-06-22T01:43:16;8.97;;;5.77;;
78752;SDS011;68072;51.688;7.842;2023-06-22T01:48:06;11.25;;;5.50;;
78752;SDS011;68072;51.688;7.842;2023-06-22T01:52:57;8.30;;;6.53;;
78752;SDS011;68072;51.688;7.842;2023-06-22T01:57:48;7.83;;;5.47;;
78752;SDS011;68072;51.688;7.842;2023-06-22T02:00:17;7.72;;;5.95;;
78752;SDS011;68072;51.688;7.842;2023-06-22T02:05:34;7.65;;;6.25;;
78752;SDS011;68072;51.688;7.842;2023-06-22T02:08:07;9.45;;;6.85;;
78752;SDS011;68072;51.688;7.842;2023-06-22T02:10:37;10.20;;;7.03;;
78752;SDS011;68072;51.688;7.842;2023-06-22T02:13:06;7.95;;;6.25;;
78752;SDS011;68072;51.688;7.842;2023-06-22T02:15:32;8.27;;;6.10;;
78752;SDS011;68072;51.688;7.842;2023-06-22T02:17:58;10.05;;;6.47;;
78752;SDS011;68072;51.688;7.842;2023-06-22T02:22:49;7.18;;;5.75;;
78752;SDS011;68072;51.688;7.842;2023-06-22T02:27:39;8.77;;;6.50;;
78752;SDS011;68072;51.688;7.842;2023-06-22T02:32:32;11.85;;;6.90;;
78752;SDS011;68072;51.688;7.842;2023-06-22T02:34:59;10.35;;;7.13;;
78752;SDS011;68072;51.688;7.842;2023-06-22T02:39:50;8.40;;;6.90;;
78752;SDS011;68072;51.688;7.842;2023-06-22T02:44:45;9.07;;;6.78;;
78752;SDS011;68072;51.688;7.842;2023-06-22T02:47:11;9.55;;;6.80;;
78752;SDS011;68072;51.688;7.842;2023-06-22T02:49:36;9.10;;;7.75;;
78752;SDS011;68072;51.688;7.842;2023-06-22T02:52:01;10.50;;;6.50;;
78752;SDS011;68072;51.688;7.842;2023-06-22T02:54:27;10.90;;;7.57;;
78752;SDS011;68072;51.688;7.842;2023-06-22T02:59:17;7.43;;;6.70;;
78752;SDS011;68072;51.688;7.842;2023-06-22T03:01:48;12.50;;;8.00;;
78752;SDS011;68072;51.688;7.842;2023-06-22T03:04:15;13.55;;;8.60;;
78752;SDS011;68072;51.688;7.842;2023-06-22T03:06:40;8.98;;;7.50;;
78752;SDS011;68072;51.688;7.842;2023-06-22T03:09:06;10.05;;;7.80;;
78752;SDS011;68072;51.688;7.842;2023-06-22T03:11:33;10.48;;;7.85;;
78752;SDS011;68072;51.688;7.842;2023-06-22T03:13:59;11.13;;;8.77;;
78752;SDS011;68072;51.688;7.842;2023-06-22T03:16:25;10.93;;;8.95;;
78752;SDS011;68072;51.688;7.842;2023-06-22T03:18:51;10.40;;;8.30;;
78752;SDS011;68072;51.688;7.842;2023-06-22T03:21:16;12.13;;;7.93;;
78752;SDS011;68072;51.688;7.842;2023-06-22T03:26:08;10.15;;;7.40;;
78752;SDS011;68072;51.688;7.842;2023-06-22T03:28:34;11.98;;;8.25;;
78752;SDS011;68072;51.688;7.842;2023-06-22T03:30:59;11.88;;;8.75;;
78752;SDS011;68072;51.688;7.842;2023-06-22T03:35:50;12.40;;;8.40;;
78752;SDS011;68072;51.688;7.842;2023-06-22T03:38:16;11.98;;;9.00;;
78752;SDS011;68072;51.688;7.842;2023-06-22T03:40:42;10.70;;;8.65;;
78752;SDS011;68072;51.688;7.842;2023-06-22T03:43:07;11.70;;;9.27;;
78752;SDS011;68072;51.688;7.842;2023-06-22T03:45:33;11.10;;;8.10;;
78752;SDS011;68072;51.688;7.842;2023-06-22T03:47:58;10.88;;;8.60;;
78752;SDS011;68072;51.688;7.842;2023-06-22T03:52:49;11.40;;;9.23;;
78752;SDS011;68072;51.688;7.842;2023-06-22T03:55:16;13.95;;;8.43;;
78752;SDS011;68072;51.688;7.842;2023-06-22T03:57:42;10.73;;;8.52;;
78752;SDS011;68072;51.688;7.842;2023-06-22T04:00:07;10.38;;;8.82;;
78752;SDS011;68072;51.688;7.842;2023-06-22T04:02:34;11.27;;;8.98;;
78752;SDS011;68072;51.688;7.842;2023-06-22T04:05:00;12.93;;;8.40;;
78752;SDS011;68072;51.688;7.842;2023-06-22T04:09:50;10.27;;;8.03;;
78752;SDS011;68072;51.688;7.842;2023-06-22T04:12:16;16.40;;;9.23;;
78752;SDS011;68072;51.688;7.842;2023-06-22T04:17:06;19.83;;;10.10;;
78752;SDS011;68072;51.688;7.842;2023-06-22T04:19:32;20.15;;;12.30;;
78752;SDS011;68072;51.688;7.842;2023-06-22T04:21:57;18.85;;;11.55;;
78752;SDS011;68072;51.688;7.842;2023-06-22T04:26:48;19.67;;;11.93;;
78752;SDS011;68072;51.688;7.842;2023-06-22T04:31:39;19.60;;;11.90;;
78752;SDS011;68072;51.688;7.842;2023-06-22T04:36:34;15.23;;;10.43;;
78752;SDS011;68072;51.688;7.842;2023-06-22T04:39:07;15.30;;;10.77;;
78752;SDS011;68072;51.688;7.842;2023-06-22T04:41:35;15.13;;;10.48;;
78752;SDS011;68072;51.688;7.842;2023-06-22T04:46:50;13.95;;;9.85;;
78752;SDS011;68072;51.688;7.842;2023-06-22T04:49:19;14.48;;;9.45;;
78752;SDS011;68072;51.688;7.842;2023-06-22T04:51:45;12.82;;;9.25;;
78752;SDS011;68072;51.688;7.842;2023-06-22T04:56:36;13.33;;;9.73;;
78752;SDS011;68072;51.688;7.842;2023-06-22T05:01:28;14.07;;;10.18;;
78752;SDS011;68072;51.688;7.842;2023-06-22T05:03:55;16.02;;;9.70;;
78752;SDS011;68072;51.688;7.842;2023-06-22T05:08:53;11.60;;;9.50;;
78752;SDS011;68072;51.688;7.842;2023-06-22T05:11:22;14.82;;;10.00;;
78752;SDS011;68072;51.688;7.842;2023-06-22T05:13:51;16.45;;;10.25;;
78752;SDS011;68072;51.688;7.842;2023-06-22T05:18:41;14.27;;;9.40;;
78752;SDS011;68072;51.688;7.842;2023-06-22T05:21:08;13.40;;;9.90;;
78752;SDS011;68072;51.688;7.842;2023-06-22T05:25:59;13.73;;;9.23;;
78752;SDS011;68072;51.688;7.842;2023-06-22T05:28:24;12.55;;;10.40;;
78752;SDS011;68072;51.688;7.842;2023-06-22T05:30:50;13.98;;;9.88;;
78752;SDS011;68072;51.688;7.842;2023-06-22T05:35:40;15.67;;;10.80;;
78752;SDS011;68072;51.688;7.842;2023-06-22T05:40:31;15.38;;;10.52;;
78752;SDS011;68072;51.688;7.842;2023-06-22T05:42:57;12.90;;;10.60;;
78752;SDS011;68072;51.688;7.842;2023-06-22T05:47:48;18.20;;;11.18;;
78752;SDS011;68072;51.688;7.842;2023-06-22T05:52:39;17.63;;;11.43;;
78752;SDS011;68072;51.688;7.842;2023-06-22T05:55:04;13.10;;;9.70;;
78752;SDS011;68072;51.688;7.842;2023-06-22T05:57:31;12.00;;;9.18;;
78752;SDS011;68072;51.688;7.842;2023-06-22T06:02:22;17.20;;;10.00;;
78752;SDS011;68072;51.688;7.842;2023-06-22T06:07:12;13.10;;;10.10;;
78752;SDS011;68072;51.688;7.842;2023-06-22T06:12:03;13.63;;;9.00;;
78752;SDS011;68072;51.688;7.842;2023-06-22T06:14:29;12.05;;;8.55;;
78752;SDS011;68072;51.688;7.842;2023-06-22T06:19:20;12.90;;;9.70;;
78752;SDS011;68072;51.688;7.842;2023-06-22T06:24:11;14.37;;;9.83;;
78752;SDS011;68072;51.688;7.842;2023-06-22T06:29:02;15.97;;;10.97;;
78752;SDS011;68072;51.688;7.842;2023-06-22T06:33:53;14.80;;;10.98;;
78752;SDS011;68072;51.688;7.842;2023-06-22T06:36:19;15.27;;;10.05;;
78752;SDS011;68072;51.688;7.842;2023-06-22T06:41:12;19.10;;;12.88;;
78752;SDS011;68072;51.688;7.842;2023-06-22T06:43:38;18.05;;;13.68;;
78752;SDS011;68072;51.688;7.842;2023-06-22T06:48:29;20.00;;;15.53;;
78752;SDS011;68072;51.688;7.842;2023-06-22T06:53:20;23.08;;;16.42;;
78752;SDS011;68072;51.688;7.842;2023-06-22T06:55:45;21.02;;;15.00;;
78752;SDS011;68072;51.688;7.842;2023-06-22T07:00:38;21.33;;;16.35;;
78752;SDS011;68072;51.688;7.842;2023-06-22T07:03:04;22.67;;;16.45;;
78752;SDS011;68072;51.688;7.842;2023-06-22T07:07:55;20.95;;;15.55;;
78752;SDS011;68072;51.688;7.842;2023-06-22T07:12:46;24.87;;;17.47;;
78752;SDS011;68072;51.688;7.842;2023-06-22T07:17:37;22.83;;;16.10;;
78752;SDS011;68072;51.688;7.842;2023-06-22T07:20:06;23.10;;;15.43;;
78752;SDS011;68072;51.688;7.842;2023-06-22T07:22:38;22.67;;;16.05;;
78752;SDS011;68072;51.688;7.842;2023-06-22T07:25:04;28.13;;;15.20;;
78752;SDS011;68072;51.688;7.842;2023-06-22T07:27:34;22.60;;;14.75;;
78752;SDS011;68072;51.688;7.842;2023-06-22T07:30:03;21.33;;;14.73;;
78752;SDS011;68072;51.688;7.842;2023-06-22T07:32:29;23.48;;;15.00;;
78752;SDS011;68072;51.688;7.842;2023-06-22T07:37:20;20.57;;;16.47;;
78752;SDS011;68072;51.688;7.842;2023-06-22T07:39:45;21.90;;;16.55;;
78752;SDS011;68072;51.688;7.842;2023-06-22T07:42:11;27.27;;;17.50;;
78752;SDS011;68072;51.688;7.842;2023-06-22T07:47:02;21.60;;;16.23;;
78752;SDS011;68072;51.688;7.842;2023-06-22T07:49:27;28.75;;;17.45;;
78752;SDS011;68072;51.688;7.842;2023-06-22T07:51:53;21.48;;;16.38;;
78752;SDS011;68072;51.688;7.842;2023-06-22T07:56:44;24.35;;;16.73;;
78752;SDS011;68072;51.688;7.842;2023-06-22T07:59:11;20.75;;;15.35;;
78752;SDS011;68072;51.688;7.842;2023-06-22T08:04:02;22.37;;;14.20;;
78752;SDS011;68072;51.688;7.842;2023-06-22T08:08:54;23.85;;;15.13;;
78752;SDS011;68072;51.688;7.842;2023-06-22T08:11:23;18.95;;;15.63;;
78752;SDS011;68072;51.688;7.842;2023-06-22T08:13:50;25.92;;;14.52;;
78752;SDS011;68072;51.688;7.842;2023-06-22T08:18:41;19.13;;;13.70;;
78752;SDS011;68072;51.688;7.842;2023-06-22T08:21:06;26.40;;;15.32;;
78752;SDS011;68072;51.688;7.842;2023-06-22T08:23:32;20.25;;;14.02;;
78752;SDS011;68072;51.688;7.842;2023-06-22T08:25:57;18.65;;;13.23;;
78752;SDS011;68072;51.688;7.842;2023-06-22T08:30:48;18.20;;;13.33;;
78752;SDS011;68072;51.688;7.842;2023-06-22T08:33:13;16.20;;;12.57;;
78752;SDS011;68072;51.688;7.842;2023-06-22T08:35:39;16.38;;;12.07;;
78752;SDS011;68072;51.688;7.842;2023-06-22T08:38:04;17.58;;;12.90;;
78752;SDS011;68072;51.688;7.842;2023-06-22T08:40:30;15.82;;;13.52;;
78752;SDS011;68072;51.688;7.842;2023-06-22T08:42:55;16.60;;;12.10;;
78752;SDS011;68072;51.688;7.842;2023-06-22T08:45:21;14.57;;;11.70;;
78752;SDS011;68072;51.688;7.842;2023-06-22T08:47:46;15.75;;;12.18;;
78752;SDS011;68072;51.688;7.842;2023-06-22T08:50:12;16.08;;;12.32;;
78752;SDS011;68072;51.688;7.842;2023-06-22T08:52:38;13.82;;;11.00;;
78752;SDS011;68072;51.688;7.842;2023-06-22T08:55:06;16.58;;;11.43;;
78752;SDS011;68072;51.688;7.842;2023-06-22T08:57:32;16.08;;;11.73;;
78752;SDS011;68072;51.688;7.842;2023-06-22T08:59:58;11.63;;;10.20;;
78752;SDS011;68072;51.688;7.842;2023-06-22T09:02:24;12.30;;;10.55;;
78752;SDS011;68072;51.688;7.842;2023-06-22T09:04:50;14.25;;;11.38;;
78752;SDS011;68072;51.688;7.842;2023-06-22T09:07:20;13.32;;;10.05;;
78752;SDS011;68072;51.688;7.842;2023-06-22T09:09:47;12.32;;;9.68;;
78752;SDS011;68072;51.688;7.842;2023-06-22T09:12:13;13.05;;;10.25;;
78752;SDS011;68072;51.688;7.842;2023-06-22T09:14:38;10.27;;;8.55;;
78752;SDS011;68072;51.688;7.842;2023-06-22T09:17:04;15.13;;;9.27;;
78752;SDS011;68072;51.688;7.842;2023-06-22T09:19:29;10.57;;;8.02;;
78752;SDS011;68072;51.688;7.842;2023-06-22T09:21:55;8.15;;;7.07;;
78752;SDS011;68072;51.688;7.842;2023-06-22T09:24:20;11.60;;;7.68;;
78752;SDS011;68072;51.688;7.842;2023-06-22T09:26:46;8.70;;;7.63;;
78752;SDS011;68072;51.688;7.842;2023-06-22T09:29:11;10.05;;;7.15;;
78752;SDS011;68072;51.688;7.842;2023-06-22T09:31:36;7.75;;;6.35;;
78752;SDS011;68072;51.688;7.842;2023-06-22T09:34:02;9.23;;;6.78;;
78752;SDS011;68072;51.688;7.842;2023-06-22T09:36:27;8.90;;;8.00;;
78752;SDS011;68072;51.688;7.842;2023-06-22T09:38:53;8.95;;;7.97;;
78752;SDS011;68072;51.688;7.842;2023-06-22T09:41:20;9.32;;;7.65;;
78752;SDS011;68072;51.688;7.842;2023-06-22T09:43:46;9.20;;;7.95;;
78752;SDS011;68072;51.688;7.842;2023-06-22T09:46:14;10.70;;;7.55;;
78752;SDS011;68072;51.688;7.842;2023-06-22T09:48:40;11.70;;;8.27;;
78752;SDS011;68072;51.688;7.842;2023-06-22T09:51:06;11.80;;;9.45;;
78752;SDS011;68072;51.688;7.842;2023-06-22T09:53:31;12.05;;;9.25;;
78752;SDS011;68072;51.688;7.842;2023-06-22T09:55:56;11.63;;;10.18;;
78752;SDS011;68072;51.688;7.842;2023-06-22T09:58:22;8.90;;;7.80;;
78752;SDS011;68072;51.688;7.842;2023-06-22T10:00:48;9.45;;;7.93;;
78752;SDS011;68072;51.688;7.842;2023-06-22T10:03:13;8.55;;;7.72;;
78752;SDS011;68072;51.688;7.842;2023-06-22T10:05:39;10.13;;;7.40;;
78752;SDS011;68072;51.688;7.842;2023-06-22T10:08:04;10.45;;;6.47;;
78752;SDS011;68072;51.688;7.842;2023-06-22T10:10:29;8.68;;;6.45;;
78752;SDS011;68072;51.688;7.842;2023-06-22T10:12:55;6.47;;;5.78;;
78752;SDS011;68072;51.688;7.842;2023-06-22T10:15:22;6.05;;;5.45;;
78752;SDS011;68072;51.688;7.842;2023-06-22T10:17:48;8.18;;;6.40;;
78752;SDS011;68072;51.688;7.842;2023-06-22T10:20:13;6.95;;;5.82;;
78752;SDS011;68072;51.688;7.842;2023-06-22T10:22:40;9.48;;;7.03;;
78752;SDS011;68072;51.688;7.842;2023-06-22T10:25:06;6.22;;;5.63;;
78752;SDS011;68072;51.688;7.842;2023-06-22T10:27:32;6.50;;;5.80;;
78752;SDS011;68072;51.688;7.842;2023-06-22T10:29:57;6.50;;;5.05;;
78752;SDS011;68072;51.688;7.842;2023-06-22T10:32:23;6.07;;;5.47;;
78752;SDS011;68072;51.688;7.842;2023-06-22T10:34:48;6.97;;;5.85;;
78752;SDS011;68072;51.688;7.842;2023-06-22T10:37:14;7.45;;;5.45;;
78752;SDS011;68072;51.688;7.842;2023-06-22T10:39:39;5.78;;;5.18;;
78752;SDS011;68072;51.688;7.842;2023-06-22T10:42:04;5.30;;;4.80;;
78752;SDS011;68072;51.688;7.842;2023-06-22T10:44:30;6.25;;;5.00;;
78752;SDS011;68072;51.688;7.842;2023-06-22T10:46:55;7.82;;;4.82;;
78752;SDS011;68072;51.688;7.842;2023-06-22T10:49:21;5.50;;;5.00;;
78752;SDS011;68072;51.688;7.842;2023-06-22T10:51:46;6.32;;;5.72;;
78752;SDS011;68072;51.688;7.842;2023-06-22T10:54:12;7.20;;;5.25;;
78752;SDS011;68072;51.688;7.842;2023-06-22T10:56:39;7.05;;;5.18;;
78752;SDS011;68072;51.688;7.842;2023-06-22T10:59:05;6.18;;;5.05;;
78752;SDS011;68072;51.688;7.842;2023-06-22T11:01:30;6.13;;;4.95;;
78752;SDS011;68072;51.688;7.842;2023-06-22T11:03:58;6.10;;;5.13;;
78752;SDS011;68072;51.688;7.842;2023-06-22T11:06:24;6.00;;;5.40;;
78752;SDS011;68072;51.688;7.842;2023-06-22T11:08:49;7.20;;;5.95;;
78752;SDS011;68072;51.688;7.842;2023-06-22T11:11:14;6.13;;;5.07;;
78752;SDS011;68072;51.688;7.842;2023-06-22T11:13:42;6.57;;;5.85;;
78752;SDS011;68072;51.688;7.842;2023-06-22T11:16:07;5.93;;;5.18;;
78752;SDS011;68072;51.688;7.842;2023-06-22T11:18:33;7.38;;;5.18;;
78752;SDS011;68072;51.688;7.842;2023-06-22T11:20:58;6.25;;;5.05;;
78752;SDS011;68072;51.688;7.842;2023-06-22T11:23:24;6.07;;;5.47;;
78752;SDS011;68072;51.688;7.842;2023-06-22T11:25:51;6.05;;;5.45;;
78752;SDS011;68072;51.688;7.842;2023-06-22T11:28:16;5.72;;;5.15;;
78752;SDS011;68072;51.688;7.842;2023-06-22T11:30:42;9.02;;;6.15;;
78752;SDS011;68072;51.688;7.842;2023-06-22T11:33:07;6.18;;;5.38;;
78752;SDS011;68072;51.688;7.842;2023-06-22T11:35:34;7.78;;;5.60;;
78752;SDS011;68072;51.688;7.842;2023-06-22T11:37:59;6.80;;;6.05;;
78752;SDS011;68072;51.688;7.842;2023-06-22T11:40:25;6.72;;;5.78;;
78752;SDS011;68072;51.688;7.842;2023-06-22T11:42:50;7.35;;;6.47;;
78752;SDS011;68072;51.688;7.842;2023-06-22T11:45:16;8.05;;;7.10;;
78752;SDS011;68072;51.688;7.842;2023-06-22T11:47:42;7.63;;;6.45;;
78752;SDS011;68072;51.688;7.842;2023-06-22T11:50:08;7.82;;;6.38;;
78752;SDS011;68072;51.688;7.842;2023-06-22T11:52:33;8.45;;;6.70;;
78752;SDS011;68072;51.688;7.842;2023-06-22T11:55:01;7.03;;;6.32;;
78752;SDS011;68072;51.688;7.842;2023-06-22T11:57:28;8.02;;;6.75;;
78752;SDS011;68072;51.688;7.842;2023-06-22T11:59:54;8.93;;;7.63;;
78752;SDS011;68072;51.688;7.842;2023-06-22T12:02:19;7.82;;;6.68;;
78752;SDS011;68072;51.688;7.842;2023-06-22T12:04:45;9.93;;;7.32;;
78752;SDS011;68072;51.688;7.842;2023-06-22T12:07:10;12.25;;;7.70;;
78752;SDS011;68072;51.688;7.842;2023-06-22T12:09:35;10.45;;;7.53;;
78752;SDS011;68072;51.688;7.842;2023-06-22T12:12:01;9.43;;;7.47;;
78752;SDS011;68072;51.688;7.842;2023-06-22T12:14:26;11.30;;;8.25;;
78752;SDS011;68072;51.688;7.842;2023-06-22T12:16:52;10.85;;;9.25;;
78752;SDS011;68072;51.688;7.842;2023-06-22T12:19:17;10.18;;;7.93;;
78752;SDS011;68072;51.688;7.842;2023-06-22T12:21:42;14.02;;;9.82;;
78752;SDS011;68072;51.688;7.842;2023-06-22T12:24:10;13.27;;;9.88;;
78752;SDS011;68072;51.688;7.842;2023-06-22T12:26:36;13.43;;;9.57;;
78752;SDS011;68072;51.688;7.842;2023-06-22T12:29:01;14.70;;;10.82;;
78752;SDS011;68072;51.688;7.842;2023-06-22T12:31:26;12.25;;;9.40;;
78752;SDS011;68072;51.688;7.842;2023-06-22T12:33:52;15.80;;;11.13;;
78752;SDS011;68072;51.688;7.842;2023-06-22T12:36:17;15.52;;;10.77;;
78752;SDS011;68072;51.688;7.842;2023-06-22T12:38:42;15.90;;;11.60;;
78752;SDS011;68072;51.688;7.842;2023-06-22T12:41:08;18.13;;;12.43;;
78752;SDS011;68072;51.688;7.842;2023-06-22T12:43:33;21.02;;;13.82;;
78752;SDS011;68072;51.688;7.842;2023-06-22T12:45:59;18.60;;;12.75;;
78752;SDS011;68072;51.688;7.842;2023-06-22T12:50:51;25.08;;;14.35;;
78752;SDS011;68072;51.688;7.842;2023-06-22T12:55:41;23.07;;;15.73;;
78752;SDS011;68072;51.688;7.842;2023-06-22T12:58:07;29.60;;;16.80;;
78752;SDS011;68072;51.688;7.842;2023-06-22T13:00:32;25.42;;;16.48;;
78752;SDS011;68072;51.688;7.842;2023-06-22T13:02:57;29.30;;;17.98;;
78752;SDS011;68072;51.688;7.842;2023-06-22T13:07:48;23.13;;;15.75;;
78752;SDS011;68072;51.688;7.842;2023-06-22T13:10:14;29.73;;;16.95;;
78752;SDS011;68072;51.688;7.842;2023-06-22T13:12:39;25.88;;;17.67;;
78752;SDS011;68072;51.688;7.842;2023-06-22T13:17:30;30.08;;;19.13;;
78752;SDS011;68072;51.688;7.842;2023-06-22T13:22:25;27.27;;;17.80;;
78752;SDS011;68072;51.688;7.842;2023-06-22T13:24:58;28.52;;;18.13;;
78752;SDS011;68072;51.688;7.842;2023-06-22T13:29:49;25.15;;;17.83;;
78752;SDS011;68072;51.688;7.842;2023-06-22T13:32:14;27.48;;;19.08;;
78752;SDS011;68072;51.688;7.842;2023-06-22T13:34:40;32.05;;;19.52;;
78752;SDS011;68072;51.688;7.842;2023-06-22T13:39:30;30.63;;;19.63;;
78752;SDS011;68072;51.688;7.842;2023-06-22T13:41:56;32.08;;;20.95;;
78752;SDS011;68072;51.688;7.842;2023-06-22T13:44:22;28.92;;;20.98;;
78752;SDS011;68072;51.688;7.842;2023-06-22T13:49:13;34.93;;;21.27;;
78752;SDS011;68072;51.688;7.842;2023-06-22T13:51:38;31.42;;;21.25;;
78752;SDS011;68072;51.688;7.842;2023-06-22T13:54:04;28.63;;;19.67;;
78752;SDS011;68072;51.688;7.842;2023-06-22T13:56:29;30.63;;;18.92;;
78752;SDS011;68072;51.688;7.842;2023-06-22T13:58:54;25.35;;;18.45;;
78752;SDS011;68072;51.688;7.842;2023-06-22T14:01:20;27.35;;;17.67;;
78752;SDS011;68072;51.688;7.842;2023-06-22T14:03:46;30.52;;;19.20;;
78752;SDS011;68072;51.688;7.842;2023-06-22T14:06:12;26.65;;;17.52;;
78752;SDS011;68072;51.688;7.842;2023-06-22T14:08:38;24.98;;;17.08;;
78752;SDS011;68072;51.688;7.842;2023-06-22T14:11:03;21.70;;;16.15;;
78752;SDS011;68072;51.688;7.842;2023-06-22T14:13:29;23.02;;;17.63;;
78752;SDS011;68072;51.688;7.842;2023-06-22T14:15:54;20.70;;;15.82;;
78752;SDS011;68072;51.688;7.842;2023-06-22T14:18:19;24.83;;;16.83;;
78752;SDS011;68072;51.688;7.842;2023-06-22T14:20:48;19.48;;;15.32;;
78752;SDS011;68072;51.688;7.842;2023-06-22T14:23:13;22.40;;;16.73;;
78752;SDS011;68072;51.688;7.842;2023-06-22T14:25:39;21.45;;;16.80;;
78752;SDS011;68072;51.688;7.842;2023-06-22T14:28:05;20.95;;;16.42;;
78752;SDS011;68072;51.688;7.842;2023-06-22T14:30:30;22.63;;;16.80;;
78752;SDS011;68072;51.688;7.842;2023-06-22T14:32:55;20.58;;;17.10;;
78752;SDS011;68072;51.688;7.842;2023-06-22T14:35:21;20.70;;;15.95;;
78752;SDS011;68072;51.688;7.842;2023-06-22T14:37:46;19.90;;;15.68;;
78752;SDS011;68072;51.688;7.842;2023-06-22T14:40:12;21.67;;;15.93;;
78752;SDS011;68072;51.688;7.842;2023-06-22T14:42:37;20.90;;;16.27;;
78752;SDS011;68072;51.688;7.842;2023-06-22T14:45:03;21.17;;;15.38;;
78752;SDS011;68072;51.688;7.842;2023-06-22T14:47:29;20.55;;;15.48;;
78752;SDS011;68072;51.688;7.842;2023-06-22T14:49:54;21.05;;;15.85;;
78752;SDS011;68072;51.688;7.842;2023-06-22T14:52:20;19.67;;;16.08;;
78752;SDS011;68072;51.688;7.842;2023-06-22T14:54:45;19.10;;;15.55;;
78752;SDS011;68072;51.688;7.842;2023-06-22T14:57:11;16.25;;;14.48;;
78752;SDS011;68072;51.688;7.842;2023-06-22T14:59:36;19.05;;;15.75;;
78752;SDS011;68072;51.688;7.842;2023-06-22T15:02:01;19.02;;;14.25;;
78752;SDS011;68072;51.688;7.842;2023-06-22T15:04:27;17.73;;;15.15;;
78752;SDS011;68072;51.688;7.842;2023-06-22T15:06:56;18.80;;;14.90;;
78752;SDS011;68072;51.688;7.842;2023-06-22T15:09:22;18.23;;;14.95;;
78752;SDS011;68072;51.688;7.842;2023-06-22T15:11:47;18.77;;;14.25;;
78752;SDS011;68072;51.688;7.842;2023-06-22T15:14:13;19.55;;;14.82;;
78752;SDS011;68072;51.688;7.842;2023-06-22T15:16:39;18.83;;;14.55;;
78752;SDS011;68072;51.688;7.842;2023-06-22T15:19:04;18.02;;;13.02;;
78752;SDS011;68072;51.688;7.842;2023-06-22T15:21:30;18.10;;;14.77;;
78752;SDS011;68072;51.688;7.842;2023-06-22T15:23:55;18.02;;;14.15;;
78752;SDS011;68072;51.688;7.842;2023-06-22T15:26:21;16.98;;;13.90;;
78752;SDS011;68072;51.688;7.842;2023-06-22T15:28:46;18.02;;;13.90;;
78752;SDS011;68072;51.688;7.842;2023-06-22T15:31:11;20.02;;;14.20;;
78752;SDS011;68072;51.688;7.842;2023-06-22T15:33:37;18.90;;;13.88;;
78752;SDS011;68072;51.688;7.842;2023-06-22T15:36:02;17.15;;;13.13;;
78752;SDS011;68072;51.688;7.842;2023-06-22T15:38:29;20.00;;;14.20;;
78752;SDS011;68072;51.688;7.842;2023-06-22T15:40:56;18.75;;;13.27;;
78752;SDS011;68072;51.688;7.842;2023-06-22T15:43:21;15.57;;;12.57;;
78752;SDS011;68072;51.688;7.842;2023-06-22T15:45:46;16.52;;;12.77;;
78752;SDS011;68072;51.688;7.842;2023-06-22T15:48:14;19.13;;;13.65;;
78752;SDS011;68072;51.688;7.842;2023-06-22T15:50:39;17.35;;;13.43;;
78752;SDS011;68072;51.688;7.842;2023-06-22T15:53:05;18.95;;;14.63;;
78752;SDS011;68072;51.688;7.842;2023-06-22T15:55:30;19.50;;;14.00;;
78752;SDS011;68072;51.688;7.842;2023-06-22T15:57:56;17.45;;;13.23;;
78752;SDS011;68072;51.688;7.842;2023-06-22T16:00:21;19.88;;;14.93;;
78752;SDS011;68072;51.688;7.842;2023-06-22T16:02:47;16.42;;;12.82;;
78752;SDS011;68072;51.688;7.842;2023-06-22T16:05:13;17.23;;;13.77;;
78752;SDS011;68072;51.688;7.842;2023-06-22T16:07:38;20.65;;;14.25;;
78752;SDS011;68072;51.688;7.842;2023-06-22T16:10:04;19.60;;;15.25;;
78752;SDS011;68072;51.688;7.842;2023-06-22T16:12:30;17.65;;;14.30;;
78752;SDS011;68072;51.688;7.842;2023-06-22T16:17:21;21.85;;;13.60;;
78752;SDS011;68072;51.688;7.842;2023-06-22T16:22:12;17.87;;;13.67;;
78752;SDS011;68072;51.688;7.842;2023-06-22T16:27:03;20.90;;;14.97;;
78752;SDS011;68072;51.688;7.842;2023-06-22T16:29:29;20.40;;;15.48;;
78752;SDS011;68072;51.688;7.842;2023-06-22T16:31:54;22.27;;;15.52;;
78752;SDS011;68072;51.688;7.842;2023-06-22T16:34:20;23.77;;;16.15;;
78752;SDS011;68072;51.688;7.842;2023-06-22T16:39:11;38.03;;;18.87;;
78752;SDS011;68072;51.688;7.842;2023-06-22T16:44:01;65.05;;;29.48;;
78752;SDS011;68072;51.688;7.842;2023-06-22T16:46:31;52.33;;;28.67;;
78752;SDS011;68072;51.688;7.842;2023-06-22T16:48:57;55.83;;;30.45;;
78752;SDS011;68072;51.688;7.842;2023-06-22T16:53:51;51.57;;;27.40;;
78752;SDS011;68072;51.688;7.842;2023-06-22T16:56:27;51.10;;;27.70;;
78752;SDS011;68072;51.688;7.842;2023-06-22T17:01:19;53.88;;;29.85;;
78752;SDS011;68072;51.688;7.842;2023-06-22T17:03:48;46.38;;;27.65;;
78752;SDS011;68072;51.688;7.842;2023-06-22T17:06:26;50.13;;;29.13;;
78752;SDS011;68072;51.688;7.842;2023-06-22T17:11:17;46.37;;;28.03;;
78752;SDS011;68072;51.688;7.842;2023-06-22T17:16:08;44.30;;;24.80;;
78752;SDS011;68072;51.688;7.842;2023-06-22T17:18:34;46.83;;;27.48;;
78752;SDS011;68072;51.688;7.842;2023-06-22T17:21:01;48.65;;;27.63;;
78752;SDS011;68072;51.688;7.842;2023-06-22T17:25:52;49.70;;;28.70;;
78752;SDS011;68072;51.688;7.842;2023-06-22T17:28:18;46.88;;;28.42;;
78752;SDS011;68072;51.688;7.842;2023-06-22T17:33:09;51.10;;;27.77;;
78752;SDS011;68072;51.688;7.842;2023-06-22T17:35:45;56.28;;;29.17;;
78752;SDS011;68072;51.688;7.842;2023-06-22T17:38:16;52.35;;;30.40;;
78752;SDS011;68072;51.688;7.842;2023-06-22T17:40:46;49.17;;;28.92;;
78752;SDS011;68072;51.688;7.842;2023-06-22T17:45:40;56.20;;;31.07;;
78752;SDS011;68072;51.688;7.842;2023-06-22T17:48:06;63.70;;;32.38;;